sensor_id;sensor_type;location;lat;lon;timestamp;P1;durP1;ratioP1;P2;durP2;ratioP2
43676;SDS011;29275;48.800;18.102;2022-07-15T00:00:08;3.05;;;0.65;;
43676;SDS011;29275;48.800;18.102;2022-07-15T00:03:12;1.27;;;0.52;;
43676;SDS011;29275;48.800;18.102;2022-07-15T00:06:14;1.50;;;0.60;;
43676;SDS011;29275;48.800;18.102;2022-07-15T00:09:16;0.88;;;0.50;;
43676;SDS011;29275;48.800;18.102;2022-07-15T00:12:18;1.17;;;0.65;;
43676;SDS011;29275;48.800;18.102;2022-07-15T00:15:21;1.90;;;0.80;;
43676;SDS011;29275;48.800;18.102;2022-07-15T00:18:27;2.05;;;0.50;;
43676;SDS011;29275;48.800;18.102;2022-07-15T00:21:29;2.13;;;0.80;;
43676;SDS011;29275;48.800;18.102;2022-07-15T00:24:31;1.38;;;0.57;;
43676;SDS011;29275;48.800;18.102;2022-07-15T00:27:33;1.75;;;0.40;;
43676;SDS011;29275;48.800;18.102;2022-07-15T00:30:37;0.47;;;0.30;;
43676;SDS011;29275;48.800;18.102;2022-07-15T00:33:40;0.95;;;0.50;;
43676;SDS011;29275;48.800;18.102;2022-07-15T00:36:42;1.02;;;0.50;;
43676;SDS011;29275;48.800;18.102;2022-07-15T00:39:44;4.82;;;0.90;;
43676;SDS011;29275;48.800;18.102;2022-07-15T00:42:46;3.08;;;0.82;;
43676;SDS011;29275;48.800;18.102;2022-07-15T00:45:49;1.10;;;0.50;;
43676;SDS011;29275;48.800;18.102;2022-07-15T00:48:51;0.70;;;0.40;;
43676;SDS011;29275;48.800;18.102;2022-07-15T00:51:54;1.55;;;0.70;;
43676;SDS011;29275;48.800;18.102;2022-07-15T00:54:59;0.85;;;0.50;;
43676;SDS011;29275;48.800;18.102;2022-07-15T00:58:03;7.20;;;0.55;;
43676;SDS011;29275;48.800;18.102;2022-07-15T01:01:07;1.60;;;0.60;;
43676;SDS011;29275;48.800;18.102;2022-07-15T01:04:10;0.88;;;0.60;;
43676;SDS011;29275;48.800;18.102;2022-07-15T01:07:16;2.42;;;0.70;;
43676;SDS011;29275;48.800;18.102;2022-07-15T01:10:18;1.25;;;0.50;;
43676;SDS011;29275;48.800;18.102;2022-07-15T01:13:22;0.88;;;0.68;;
43676;SDS011;29275;48.800;18.102;2022-07-15T01:16:24;1.52;;;0.63;;
43676;SDS011;29275;48.800;18.102;2022-07-15T01:19:27;0.73;;;0.47;;
43676;SDS011;29275;48.800;18.102;2022-07-15T01:22:29;1.38;;;0.63;;
43676;SDS011;29275;48.800;18.102;2022-07-15T01:25:32;1.80;;;0.60;;
43676;SDS011;29275;48.800;18.102;2022-07-15T01:28:42;0.85;;;0.45;;
43676;SDS011;29275;48.800;18.102;2022-07-15T01:31:46;1.30;;;0.52;;
43676;SDS011;29275;48.800;18.102;2022-07-15T01:34:50;3.50;;;0.70;;
43676;SDS011;29275;48.800;18.102;2022-07-15T01:37:55;0.77;;;0.45;;
43676;SDS011;29275;48.800;18.102;2022-07-15T01:40:58;2.45;;;0.60;;
43676;SDS011;29275;48.800;18.102;2022-07-15T01:44:03;6.72;;;0.70;;
43676;SDS011;29275;48.800;18.102;2022-07-15T01:47:06;1.52;;;0.68;;
43676;SDS011;29275;48.800;18.102;2022-07-15T01:50:11;1.52;;;0.60;;
43676;SDS011;29275;48.800;18.102;2022-07-15T01:53:28;1.98;;;0.75;;
43676;SDS011;29275;48.800;18.102;2022-07-15T01:56:31;3.03;;;1.02;;
43676;SDS011;29275;48.800;18.102;2022-07-15T01:59:33;1.40;;;0.70;;
43676;SDS011;29275;48.800;18.102;2022-07-15T02:02:35;4.03;;;0.70;;
43676;SDS011;29275;48.800;18.102;2022-07-15T02:05:39;1.33;;;0.68;;
43676;SDS011;29275;48.800;18.102;2022-07-15T02:08:41;1.15;;;0.73;;
43676;SDS011;29275;48.800;18.102;2022-07-15T02:11:47;1.60;;;0.60;;
43676;SDS011;29275;48.800;18.102;2022-07-15T02:14:50;1.35;;;0.73;;
43676;SDS011;29275;48.800;18.102;2022-07-15T02:17:52;1.30;;;0.82;;
43676;SDS011;29275;48.800;18.102;2022-07-15T02:20:59;1.70;;;0.70;;
43676;SDS011;29275;48.800;18.102;2022-07-15T02:24:05;1.27;;;0.70;;
43676;SDS011;29275;48.800;18.102;2022-07-15T02:27:07;1.13;;;0.75;;
43676;SDS011;29275;48.800;18.102;2022-07-15T02:30:09;2.70;;;1.00;;
43676;SDS011;29275;48.800;18.102;2022-07-15T02:33:14;1.40;;;0.80;;
43676;SDS011;29275;48.800;18.102;2022-07-15T02:36:16;2.83;;;0.82;;
43676;SDS011;29275;48.800;18.102;2022-07-15T02:39:20;2.13;;;0.80;;
43676;SDS011;29275;48.800;18.102;2022-07-15T02:42:22;1.10;;;0.70;;
43676;SDS011;29275;48.800;18.102;2022-07-15T02:45:25;1.73;;;0.85;;
43676;SDS011;29275;48.800;18.102;2022-07-15T02:48:30;1.30;;;0.82;;
43676;SDS011;29275;48.800;18.102;2022-07-15T02:51:36;1.60;;;0.88;;
43676;SDS011;29275;48.800;18.102;2022-07-15T02:54:41;3.47;;;0.73;;
43676;SDS011;29275;48.800;18.102;2022-07-15T02:57:43;2.47;;;0.98;;
43676;SDS011;29275;48.800;18.102;2022-07-15T03:00:46;3.03;;;0.90;;
43676;SDS011;29275;48.800;18.102;2022-07-15T03:03:48;1.40;;;0.85;;
43676;SDS011;29275;48.800;18.102;2022-07-15T03:06:55;3.55;;;0.90;;
43676;SDS011;29275;48.800;18.102;2022-07-15T03:09:57;3.70;;;0.90;;
43676;SDS011;29275;48.800;18.102;2022-07-15T03:12:59;1.90;;;1.00;;
43676;SDS011;29275;48.800;18.102;2022-07-15T03:16:02;1.55;;;1.05;;
43676;SDS011;29275;48.800;18.102;2022-07-15T03:19:06;2.83;;;1.20;;
43676;SDS011;29275;48.800;18.102;2022-07-15T03:22:11;1.88;;;1.17;;
43676;SDS011;29275;48.800;18.102;2022-07-15T03:25:16;1.38;;;1.00;;
43676;SDS011;29275;48.800;18.102;2022-07-15T03:28:18;2.25;;;1.55;;
43676;SDS011;29275;48.800;18.102;2022-07-15T03:31:22;2.42;;;1.45;;
43676;SDS011;29275;48.800;18.102;2022-07-15T03:34:25;2.38;;;1.77;;
43676;SDS011;29275;48.800;18.102;2022-07-15T03:37:28;2.88;;;1.80;;
43676;SDS011;29275;48.800;18.102;2022-07-15T03:40:31;2.22;;;1.50;;
43676;SDS011;29275;48.800;18.102;2022-07-15T03:43:33;2.28;;;1.70;;
43676;SDS011;29275;48.800;18.102;2022-07-15T03:46:35;2.42;;;1.75;;
43676;SDS011;29275;48.800;18.102;2022-07-15T03:49:39;4.25;;;2.03;;
43676;SDS011;29275;48.800;18.102;2022-07-15T03:52:41;2.17;;;1.67;;
43676;SDS011;29275;48.800;18.102;2022-07-15T03:55:44;2.13;;;1.50;;
43676;SDS011;29275;48.800;18.102;2022-07-15T03:58:46;3.13;;;2.05;;
43676;SDS011;29275;48.800;18.102;2022-07-15T04:01:48;3.00;;;1.60;;
43676;SDS011;29275;48.800;18.102;2022-07-15T04:04:51;7.53;;;2.03;;
43676;SDS011;29275;48.800;18.102;2022-07-15T04:07:54;2.88;;;2.13;;
43676;SDS011;29275;48.800;18.102;2022-07-15T04:10:56;6.10;;;1.98;;
43676;SDS011;29275;48.800;18.102;2022-07-15T04:13:58;3.22;;;2.13;;
43676;SDS011;29275;48.800;18.102;2022-07-15T04:17:01;4.15;;;2.38;;
43676;SDS011;29275;48.800;18.102;2022-07-15T04:20:09;2.65;;;1.95;;
43676;SDS011;29275;48.800;18.102;2022-07-15T04:23:20;3.72;;;2.13;;
43676;SDS011;29275;48.800;18.102;2022-07-15T04:26:25;2.78;;;1.83;;
43676;SDS011;29275;48.800;18.102;2022-07-15T04:29:31;3.78;;;2.42;;
43676;SDS011;29275;48.800;18.102;2022-07-15T04:32:35;3.43;;;1.90;;
43676;SDS011;29275;48.800;18.102;2022-07-15T04:35:37;3.60;;;1.98;;
43676;SDS011;29275;48.800;18.102;2022-07-15T04:38:41;3.03;;;2.30;;
43676;SDS011;29275;48.800;18.102;2022-07-15T04:41:43;3.78;;;2.10;;
43676;SDS011;29275;48.800;18.102;2022-07-15T04:44:46;3.00;;;2.03;;
43676;SDS011;29275;48.800;18.102;2022-07-15T04:47:50;4.55;;;2.47;;
43676;SDS011;29275;48.800;18.102;2022-07-15T04:51:01;3.03;;;2.03;;
43676;SDS011;29275;48.800;18.102;2022-07-15T04:54:03;3.08;;;2.47;;
43676;SDS011;29275;48.800;18.102;2022-07-15T05:00:13;4.45;;;2.45;;
43676;SDS011;29275;48.800;18.102;2022-07-15T05:03:16;4.85;;;2.67;;
43676;SDS011;29275;48.800;18.102;2022-07-15T05:06:19;4.30;;;2.85;;
43676;SDS011;29275;48.800;18.102;2022-07-15T05:09:22;5.13;;;3.00;;
43676;SDS011;29275;48.800;18.102;2022-07-15T05:12:24;4.88;;;3.00;;
43676;SDS011;29275;48.800;18.102;2022-07-15T05:15:30;4.38;;;2.90;;
43676;SDS011;29275;48.800;18.102;2022-07-15T05:18:42;3.22;;;2.38;;
43676;SDS011;29275;48.800;18.102;2022-07-15T05:21:50;3.85;;;2.38;;
43676;SDS011;29275;48.800;18.102;2022-07-15T05:24:54;4.18;;;3.05;;
43676;SDS011;29275;48.800;18.102;2022-07-15T05:27:56;5.88;;;2.92;;
43676;SDS011;29275;48.800;18.102;2022-07-15T05:30:59;4.80;;;3.10;;
43676;SDS011;29275;48.800;18.102;2022-07-15T05:34:01;4.05;;;2.83;;
43676;SDS011;29275;48.800;18.102;2022-07-15T05:37:04;5.72;;;3.20;;
43676;SDS011;29275;48.800;18.102;2022-07-15T05:40:07;4.97;;;3.38;;
43676;SDS011;29275;48.800;18.102;2022-07-15T05:43:16;5.50;;;3.45;;
43676;SDS011;29275;48.800;18.102;2022-07-15T05:46:20;8.93;;;3.40;;
43676;SDS011;29275;48.800;18.102;2022-07-15T05:49:28;5.28;;;3.50;;
43676;SDS011;29275;48.800;18.102;2022-07-15T05:52:31;4.55;;;3.58;;
43676;SDS011;29275;48.800;18.102;2022-07-15T05:55:39;4.38;;;3.05;;
43676;SDS011;29275;48.800;18.102;2022-07-15T05:58:46;7.57;;;3.70;;
43676;SDS011;29275;48.800;18.102;2022-07-15T06:01:49;4.35;;;3.17;;
43676;SDS011;29275;48.800;18.102;2022-07-15T06:04:53;8.32;;;3.42;;
43676;SDS011;29275;48.800;18.102;2022-07-15T06:07:55;6.53;;;3.30;;
43676;SDS011;29275;48.800;18.102;2022-07-15T06:11:05;5.85;;;3.53;;
43676;SDS011;29275;48.800;18.102;2022-07-15T06:14:10;5.50;;;3.00;;
43676;SDS011;29275;48.800;18.102;2022-07-15T06:17:13;7.60;;;3.70;;
43676;SDS011;29275;48.800;18.102;2022-07-15T06:20:16;5.93;;;3.30;;
43676;SDS011;29275;48.800;18.102;2022-07-15T06:23:22;5.35;;;3.60;;
43676;SDS011;29275;48.800;18.102;2022-07-15T06:26:25;5.65;;;3.33;;
43676;SDS011;29275;48.800;18.102;2022-07-15T06:29:27;3.70;;;2.92;;
43676;SDS011;29275;48.800;18.102;2022-07-15T06:32:32;5.20;;;3.15;;
43676;SDS011;29275;48.800;18.102;2022-07-15T06:35:36;4.80;;;3.35;;
43676;SDS011;29275;48.800;18.102;2022-07-15T06:38:45;4.72;;;3.50;;
43676;SDS011;29275;48.800;18.102;2022-07-15T06:41:47;7.90;;;3.60;;
43676;SDS011;29275;48.800;18.102;2022-07-15T06:44:50;6.45;;;3.78;;
43676;SDS011;29275;48.800;18.102;2022-07-15T06:47:54;5.47;;;3.60;;
43676;SDS011;29275;48.800;18.102;2022-07-15T06:51:01;4.47;;;3.05;;
43676;SDS011;29275;48.800;18.102;2022-07-15T06:54:03;3.50;;;2.95;;
43676;SDS011;29275;48.800;18.102;2022-07-15T06:57:07;4.03;;;2.70;;
43676;SDS011;29275;48.800;18.102;2022-07-15T07:00:16;4.60;;;3.22;;
43676;SDS011;29275;48.800;18.102;2022-07-15T07:03:18;8.38;;;3.00;;
43676;SDS011;29275;48.800;18.102;2022-07-15T07:06:41;4.97;;;2.90;;
43676;SDS011;29275;48.800;18.102;2022-07-15T07:09:43;3.85;;;2.97;;
43676;SDS011;29275;48.800;18.102;2022-07-15T07:12:46;5.13;;;3.28;;
43676;SDS011;29275;48.800;18.102;2022-07-15T07:15:49;3.80;;;3.08;;
43676;SDS011;29275;48.800;18.102;2022-07-15T07:18:52;5.05;;;2.78;;
43676;SDS011;29275;48.800;18.102;2022-07-15T07:21:55;3.30;;;2.50;;
43676;SDS011;29275;48.800;18.102;2022-07-15T07:24:57;3.45;;;2.72;;
43676;SDS011;29275;48.800;18.102;2022-07-15T07:28:01;3.92;;;2.45;;
43676;SDS011;29275;48.800;18.102;2022-07-15T07:31:06;4.13;;;2.40;;
43676;SDS011;29275;48.800;18.102;2022-07-15T07:34:10;5.80;;;2.28;;
43676;SDS011;29275;48.800;18.102;2022-07-15T07:37:12;4.32;;;2.35;;
43676;SDS011;29275;48.800;18.102;2022-07-15T07:40:15;2.75;;;2.05;;
43676;SDS011;29275;48.800;18.102;2022-07-15T07:43:18;4.10;;;2.10;;
43676;SDS011;29275;48.800;18.102;2022-07-15T07:46:21;4.60;;;2.72;;
43676;SDS011;29275;48.800;18.102;2022-07-15T07:49:24;6.80;;;2.17;;
43676;SDS011;29275;48.800;18.102;2022-07-15T07:52:36;2.80;;;1.52;;
43676;SDS011;29275;48.800;18.102;2022-07-15T07:55:39;4.82;;;1.95;;
43676;SDS011;29275;48.800;18.102;2022-07-15T07:58:41;6.80;;;2.22;;
43676;SDS011;29275;48.800;18.102;2022-07-15T08:01:44;2.33;;;1.60;;
43676;SDS011;29275;48.800;18.102;2022-07-15T08:04:46;2.60;;;1.55;;
43676;SDS011;29275;48.800;18.102;2022-07-15T08:07:49;2.42;;;1.95;;
43676;SDS011;29275;48.800;18.102;2022-07-15T08:10:52;2.28;;;1.48;;
43676;SDS011;29275;48.800;18.102;2022-07-15T08:13:56;3.47;;;1.92;;
43676;SDS011;29275;48.800;18.102;2022-07-15T08:16:58;3.53;;;1.48;;
43676;SDS011;29275;48.800;18.102;2022-07-15T08:20:01;2.67;;;1.30;;
43676;SDS011;29275;48.800;18.102;2022-07-15T08:23:04;2.97;;;1.25;;
43676;SDS011;29275;48.800;18.102;2022-07-15T08:26:07;2.95;;;1.17;;
43676;SDS011;29275;48.800;18.102;2022-07-15T08:29:12;6.82;;;1.13;;
43676;SDS011;29275;48.800;18.102;2022-07-15T08:32:15;2.38;;;1.33;;
43676;SDS011;29275;48.800;18.102;2022-07-15T08:35:17;3.17;;;1.30;;
43676;SDS011;29275;48.800;18.102;2022-07-15T08:38:20;3.83;;;1.00;;
43676;SDS011;29275;48.800;18.102;2022-07-15T08:41:22;3.45;;;1.30;;
43676;SDS011;29275;48.800;18.102;2022-07-15T08:44:25;2.25;;;1.10;;
43676;SDS011;29275;48.800;18.102;2022-07-15T08:47:27;2.38;;;1.02;;
43676;SDS011;29275;48.800;18.102;2022-07-15T08:50:55;1.70;;;0.98;;
43676;SDS011;29275;48.800;18.102;2022-07-15T08:53:58;2.83;;;1.00;;
43676;SDS011;29275;48.800;18.102;2022-07-15T08:57:00;1.92;;;0.95;;
43676;SDS011;29275;48.800;18.102;2022-07-15T09:00:03;2.50;;;0.98;;
43676;SDS011;29275;48.800;18.102;2022-07-15T09:03:09;1.67;;;0.70;;
43676;SDS011;29275;48.800;18.102;2022-07-15T09:06:29;2.55;;;0.80;;
43676;SDS011;29275;48.800;18.102;2022-07-15T09:09:38;1.30;;;0.70;;
43676;SDS011;29275;48.800;18.102;2022-07-15T09:12:40;3.38;;;1.10;;
43676;SDS011;29275;48.800;18.102;2022-07-15T09:15:44;1.98;;;0.82;;
43676;SDS011;29275;48.800;18.102;2022-07-15T09:18:47;2.03;;;0.82;;
43676;SDS011;29275;48.800;18.102;2022-07-15T09:21:59;4.25;;;1.20;;
43676;SDS011;29275;48.800;18.102;2022-07-15T09:25:07;2.30;;;0.98;;
43676;SDS011;29275;48.800;18.102;2022-07-15T09:28:11;2.53;;;1.05;;
43676;SDS011;29275;48.800;18.102;2022-07-15T09:31:14;2.03;;;0.85;;
43676;SDS011;29275;48.800;18.102;2022-07-15T09:34:35;4.03;;;1.10;;
43676;SDS011;29275;48.800;18.102;2022-07-15T09:37:54;4.05;;;0.70;;
43676;SDS011;29275;48.800;18.102;2022-07-15T09:40:56;3.35;;;0.75;;
43676;SDS011;29275;48.800;18.102;2022-07-15T09:44:03;2.17;;;0.75;;
43676;SDS011;29275;48.800;18.102;2022-07-15T09:47:09;1.27;;;0.68;;
43676;SDS011;29275;48.800;18.102;2022-07-15T09:50:32;3.83;;;0.75;;
43676;SDS011;29275;48.800;18.102;2022-07-15T09:53:36;1.45;;;0.80;;
43676;SDS011;29275;48.800;18.102;2022-07-15T09:56:39;5.15;;;0.98;;
43676;SDS011;29275;48.800;18.102;2022-07-15T09:59:42;2.63;;;1.10;;
43676;SDS011;29275;48.800;18.102;2022-07-15T10:02:44;1.80;;;0.80;;
43676;SDS011;29275;48.800;18.102;2022-07-15T10:05:47;1.63;;;0.82;;
43676;SDS011;29275;48.800;18.102;2022-07-15T10:09:00;3.22;;;0.85;;
43676;SDS011;29275;48.800;18.102;2022-07-15T10:12:13;1.50;;;0.70;;
43676;SDS011;29275;48.800;18.102;2022-07-15T10:15:23;1.45;;;0.70;;
43676;SDS011;29275;48.800;18.102;2022-07-15T10:28:31;2.00;;;0.70;;
43676;SDS011;29275;48.800;18.102;2022-07-15T10:31:57;2.28;;;0.77;;
43676;SDS011;29275;48.800;18.102;2022-07-15T10:35:01;2.47;;;0.93;;
43676;SDS011;29275;48.800;18.102;2022-07-15T10:38:39;1.73;;;1.02;;
43676;SDS011;29275;48.800;18.102;2022-07-15T10:41:51;5.45;;;0.73;;
43676;SDS011;29275;48.800;18.102;2022-07-15T10:45:06;2.20;;;0.55;;
43676;SDS011;29275;48.800;18.102;2022-07-15T10:48:25;2.50;;;0.85;;
43676;SDS011;29275;48.800;18.102;2022-07-15T10:54:38;2.27;;;0.70;;
43676;SDS011;29275;48.800;18.102;2022-07-15T11:00:52;2.67;;;0.57;;
43676;SDS011;29275;48.800;18.102;2022-07-15T11:04:14;1.20;;;0.80;;
43676;SDS011;29275;48.800;18.102;2022-07-15T11:07:20;2.90;;;0.80;;
43676;SDS011;29275;48.800;18.102;2022-07-15T11:10:26;1.88;;;0.60;;
43676;SDS011;29275;48.800;18.102;2022-07-15T11:13:32;1.75;;;0.80;;
43676;SDS011;29275;48.800;18.102;2022-07-15T11:16:36;1.85;;;0.70;;
43676;SDS011;29275;48.800;18.102;2022-07-15T11:19:38;1.25;;;0.68;;
43676;SDS011;29275;48.800;18.102;2022-07-15T11:22:42;2.58;;;0.60;;
43676;SDS011;29275;48.800;18.102;2022-07-15T11:25:47;1.48;;;0.60;;
43676;SDS011;29275;48.800;18.102;2022-07-15T11:28:54;1.15;;;0.55;;
43676;SDS011;29275;48.800;18.102;2022-07-15T11:31:58;2.10;;;0.80;;
43676;SDS011;29275;48.800;18.102;2022-07-15T11:35:01;1.15;;;0.65;;
43676;SDS011;29275;48.800;18.102;2022-07-15T11:38:04;7.53;;;1.02;;
43676;SDS011;29275;48.800;18.102;2022-07-15T11:41:06;1.25;;;0.70;;
43676;SDS011;29275;48.800;18.102;2022-07-15T11:44:35;2.35;;;0.68;;
43676;SDS011;29275;48.800;18.102;2022-07-15T11:47:49;3.25;;;1.00;;
43676;SDS011;29275;48.800;18.102;2022-07-15T11:50:54;2.13;;;0.70;;
43676;SDS011;29275;48.800;18.102;2022-07-15T11:53:58;1.50;;;0.55;;
43676;SDS011;29275;48.800;18.102;2022-07-15T11:57:04;1.55;;;0.70;;
43676;SDS011;29275;48.800;18.102;2022-07-15T12:00:08;1.60;;;0.73;;
43676;SDS011;29275;48.800;18.102;2022-07-15T12:03:13;2.70;;;0.82;;
43676;SDS011;29275;48.800;18.102;2022-07-15T12:06:16;1.50;;;0.60;;
43676;SDS011;29275;48.800;18.102;2022-07-15T12:09:21;1.35;;;0.73;;
43676;SDS011;29275;48.800;18.102;2022-07-15T12:12:24;1.00;;;0.50;;
43676;SDS011;29275;48.800;18.102;2022-07-15T12:15:26;3.60;;;0.70;;
43676;SDS011;29275;48.800;18.102;2022-07-15T12:18:28;1.17;;;0.60;;
43676;SDS011;29275;48.800;18.102;2022-07-15T12:21:31;1.67;;;0.60;;
43676;SDS011;29275;48.800;18.102;2022-07-15T12:27:46;0.60;;;0.40;;
43676;SDS011;29275;48.800;18.102;2022-07-15T12:30:49;1.20;;;0.57;;
43676;SDS011;29275;48.800;18.102;2022-07-15T12:33:52;1.40;;;0.50;;
43676;SDS011;29275;48.800;18.102;2022-07-15T12:36:55;2.45;;;0.50;;
43676;SDS011;29275;48.800;18.102;2022-07-15T12:43:11;0.90;;;0.30;;
43676;SDS011;29275;48.800;18.102;2022-07-15T12:46:14;1.25;;;0.38;;
43676;SDS011;29275;48.800;18.102;2022-07-15T12:52:38;0.70;;;0.50;;
43676;SDS011;29275;48.800;18.102;2022-07-15T12:55:42;0.88;;;0.40;;
43676;SDS011;29275;48.800;18.102;2022-07-15T12:58:49;1.45;;;0.65;;
43676;SDS011;29275;48.800;18.102;2022-07-15T13:02:03;2.47;;;0.40;;
43676;SDS011;29275;48.800;18.102;2022-07-15T13:05:06;2.47;;;0.93;;
43676;SDS011;29275;48.800;18.102;2022-07-15T13:11:15;3.78;;;0.50;;
43676;SDS011;29275;48.800;18.102;2022-07-15T13:14:17;1.30;;;0.63;;
43676;SDS011;29275;48.800;18.102;2022-07-15T13:17:19;1.50;;;0.60;;
43676;SDS011;29275;48.800;18.102;2022-07-15T13:20:22;0.93;;;0.43;;
43676;SDS011;29275;48.800;18.102;2022-07-15T13:23:24;0.73;;;0.50;;
43676;SDS011;29275;48.800;18.102;2022-07-15T13:26:27;2.22;;;0.40;;
43676;SDS011;29275;48.800;18.102;2022-07-15T13:29:30;1.58;;;0.57;;
43676;SDS011;29275;48.800;18.102;2022-07-15T13:32:32;1.33;;;0.50;;
43676;SDS011;29275;48.800;18.102;2022-07-15T13:35:34;1.30;;;0.40;;
43676;SDS011;29275;48.800;18.102;2022-07-15T13:38:37;0.77;;;0.38;;
43676;SDS011;29275;48.800;18.102;2022-07-15T13:41:40;1.52;;;0.50;;
43676;SDS011;29275;48.800;18.102;2022-07-15T13:44:42;0.70;;;0.32;;
43676;SDS011;29275;48.800;18.102;2022-07-15T13:47:48;1.50;;;0.40;;
43676;SDS011;29275;48.800;18.102;2022-07-15T13:50:51;0.75;;;0.55;;
43676;SDS011;29275;48.800;18.102;2022-07-15T13:54:13;1.63;;;0.52;;
43676;SDS011;29275;48.800;18.102;2022-07-15T13:57:15;0.68;;;0.30;;
43676;SDS011;29275;48.800;18.102;2022-07-15T14:00:19;1.48;;;0.50;;
43676;SDS011;29275;48.800;18.102;2022-07-15T14:03:27;1.48;;;0.60;;
43676;SDS011;29275;48.800;18.102;2022-07-15T14:06:30;1.75;;;0.50;;
43676;SDS011;29275;48.800;18.102;2022-07-15T14:09:32;3.15;;;0.63;;
43676;SDS011;29275;48.800;18.102;2022-07-15T14:12:42;3.17;;;0.45;;
43676;SDS011;29275;48.800;18.102;2022-07-15T14:15:48;2.95;;;0.70;;
43676;SDS011;29275;48.800;18.102;2022-07-15T14:18:50;1.02;;;0.60;;
43676;SDS011;29275;48.800;18.102;2022-07-15T14:21:55;1.52;;;0.40;;
43676;SDS011;29275;48.800;18.102;2022-07-15T14:24:58;0.98;;;0.43;;
43676;SDS011;29275;48.800;18.102;2022-07-15T14:28:01;0.80;;;0.40;;
43676;SDS011;29275;48.800;18.102;2022-07-15T14:31:04;1.98;;;0.40;;
43676;SDS011;29275;48.800;18.102;2022-07-15T14:34:08;1.10;;;0.50;;
43676;SDS011;29275;48.800;18.102;2022-07-15T14:37:11;1.95;;;0.50;;
43676;SDS011;29275;48.800;18.102;2022-07-15T14:40:33;4.10;;;0.63;;
43676;SDS011;29275;48.800;18.102;2022-07-15T14:43:35;0.93;;;0.47;;
43676;SDS011;29275;48.800;18.102;2022-07-15T14:46:38;3.80;;;0.60;;
43676;SDS011;29275;48.800;18.102;2022-07-15T14:49:40;3.00;;;0.50;;
43676;SDS011;29275;48.800;18.102;2022-07-15T14:52:45;1.00;;;0.50;;
43676;SDS011;29275;48.800;18.102;2022-07-15T14:55:47;2.97;;;0.52;;
43676;SDS011;29275;48.800;18.102;2022-07-15T14:58:49;1.67;;;0.63;;
43676;SDS011;29275;48.800;18.102;2022-07-15T15:01:51;1.50;;;0.45;;
43676;SDS011;29275;48.800;18.102;2022-07-15T15:04:57;1.48;;;0.73;;
43676;SDS011;29275;48.800;18.102;2022-07-15T15:07:59;0.95;;;0.40;;
43676;SDS011;29275;48.800;18.102;2022-07-15T15:11:03;1.65;;;0.60;;
43676;SDS011;29275;48.800;18.102;2022-07-15T15:14:06;0.85;;;0.43;;
43676;SDS011;29275;48.800;18.102;2022-07-15T15:17:08;2.63;;;0.70;;
43676;SDS011;29275;48.800;18.102;2022-07-15T15:20:11;0.98;;;0.50;;
43676;SDS011;29275;48.800;18.102;2022-07-15T15:23:14;4.00;;;0.57;;
43676;SDS011;29275;48.800;18.102;2022-07-15T15:26:16;2.25;;;0.50;;
43676;SDS011;29275;48.800;18.102;2022-07-15T15:29:25;0.77;;;0.50;;
43676;SDS011;29275;48.800;18.102;2022-07-15T15:32:28;0.95;;;0.50;;
43676;SDS011;29275;48.800;18.102;2022-07-15T15:35:31;1.80;;;0.60;;
43676;SDS011;29275;48.800;18.102;2022-07-15T15:38:34;3.28;;;0.60;;
43676;SDS011;29275;48.800;18.102;2022-07-15T15:41:39;4.72;;;0.60;;
43676;SDS011;29275;48.800;18.102;2022-07-15T15:44:41;0.90;;;0.43;;
43676;SDS011;29275;48.800;18.102;2022-07-15T15:47:46;0.70;;;0.30;;
43676;SDS011;29275;48.800;18.102;2022-07-15T15:50:49;0.68;;;0.30;;
43676;SDS011;29275;48.800;18.102;2022-07-15T15:53:52;3.65;;;0.80;;
43676;SDS011;29275;48.800;18.102;2022-07-15T15:56:54;0.50;;;0.40;;
43676;SDS011;29275;48.800;18.102;2022-07-15T15:59:56;0.68;;;0.50;;
43676;SDS011;29275;48.800;18.102;2022-07-15T16:03:12;1.83;;;0.50;;
43676;SDS011;29275;48.800;18.102;2022-07-15T16:06:15;1.98;;;0.60;;
43676;SDS011;29275;48.800;18.102;2022-07-15T16:09:24;1.42;;;0.60;;
43676;SDS011;29275;48.800;18.102;2022-07-15T16:12:27;2.13;;;0.65;;
43676;SDS011;29275;48.800;18.102;2022-07-15T16:15:31;3.95;;;0.50;;
43676;SDS011;29275;48.800;18.102;2022-07-15T16:18:33;1.67;;;0.75;;
43676;SDS011;29275;48.800;18.102;2022-07-15T16:21:35;2.53;;;0.52;;
43676;SDS011;29275;48.800;18.102;2022-07-15T16:24:56;1.67;;;0.60;;
43676;SDS011;29275;48.800;18.102;2022-07-15T16:28:00;1.42;;;0.70;;
43676;SDS011;29275;48.800;18.102;2022-07-15T16:31:03;1.55;;;0.55;;
43676;SDS011;29275;48.800;18.102;2022-07-15T16:34:05;1.27;;;0.40;;
43676;SDS011;29275;48.800;18.102;2022-07-15T16:37:07;0.85;;;0.40;;
43676;SDS011;29275;48.800;18.102;2022-07-15T16:40:10;1.02;;;0.32;;
43676;SDS011;29275;48.800;18.102;2022-07-15T16:43:13;1.33;;;0.70;;
43676;SDS011;29275;48.800;18.102;2022-07-15T16:46:15;0.50;;;0.40;;
43676;SDS011;29275;48.800;18.102;2022-07-15T16:49:18;1.40;;;0.70;;
43676;SDS011;29275;48.800;18.102;2022-07-15T16:52:22;6.70;;;0.70;;
43676;SDS011;29275;48.800;18.102;2022-07-15T16:55:24;3.97;;;0.70;;
43676;SDS011;29275;48.800;18.102;2022-07-15T16:58:27;1.75;;;0.50;;
43676;SDS011;29275;48.800;18.102;2022-07-15T17:01:30;1.75;;;0.65;;
43676;SDS011;29275;48.800;18.102;2022-07-15T17:04:32;1.20;;;0.50;;
43676;SDS011;29275;48.800;18.102;2022-07-15T17:07:34;1.40;;;0.52;;
43676;SDS011;29275;48.800;18.102;2022-07-15T17:10:36;1.00;;;0.47;;
43676;SDS011;29275;48.800;18.102;2022-07-15T17:13:39;1.45;;;0.52;;
43676;SDS011;29275;48.800;18.102;2022-07-15T17:16:41;1.98;;;0.50;;
43676;SDS011;29275;48.800;18.102;2022-07-15T17:19:45;2.33;;;0.50;;
43676;SDS011;29275;48.800;18.102;2022-07-15T17:22:47;3.20;;;0.60;;
43676;SDS011;29275;48.800;18.102;2022-07-15T17:25:51;2.58;;;0.52;;
43676;SDS011;29275;48.800;18.102;2022-07-15T17:28:53;1.48;;;0.70;;
43676;SDS011;29275;48.800;18.102;2022-07-15T17:31:55;2.47;;;0.75;;
43676;SDS011;29275;48.800;18.102;2022-07-15T17:35:00;2.30;;;1.00;;
43676;SDS011;29275;48.800;18.102;2022-07-15T17:38:03;4.43;;;1.17;;
43676;SDS011;29275;48.800;18.102;2022-07-15T17:41:06;1.48;;;0.80;;
43676;SDS011;29275;48.800;18.102;2022-07-15T17:44:08;2.40;;;0.85;;
43676;SDS011;29275;48.800;18.102;2022-07-15T17:47:12;1.98;;;0.70;;
43676;SDS011;29275;48.800;18.102;2022-07-15T17:50:15;1.00;;;0.60;;
43676;SDS011;29275;48.800;18.102;2022-07-15T17:53:17;2.65;;;1.00;;
43676;SDS011;29275;48.800;18.102;2022-07-15T17:56:19;2.80;;;0.82;;
43676;SDS011;29275;48.800;18.102;2022-07-15T17:59:27;1.40;;;0.70;;
43676;SDS011;29275;48.800;18.102;2022-07-15T18:02:30;3.50;;;0.80;;
43676;SDS011;29275;48.800;18.102;2022-07-15T18:05:40;2.17;;;1.00;;
43676;SDS011;29275;48.800;18.102;2022-07-15T18:08:43;2.38;;;0.80;;
43676;SDS011;29275;48.800;18.102;2022-07-15T18:11:47;1.77;;;0.90;;
43676;SDS011;29275;48.800;18.102;2022-07-15T18:14:50;5.00;;;0.90;;
43676;SDS011;29275;48.800;18.102;2022-07-15T18:17:56;1.92;;;0.65;;
43676;SDS011;29275;48.800;18.102;2022-07-15T18:20:58;2.58;;;0.80;;
43676;SDS011;29275;48.800;18.102;2022-07-15T18:24:04;1.33;;;0.73;;
43676;SDS011;29275;48.800;18.102;2022-07-15T18:27:11;1.45;;;0.73;;
43676;SDS011;29275;48.800;18.102;2022-07-15T18:30:14;3.50;;;1.05;;
43676;SDS011;29275;48.800;18.102;2022-07-15T18:33:17;1.20;;;0.90;;
43676;SDS011;29275;48.800;18.102;2022-07-15T18:36:19;2.15;;;0.95;;
43676;SDS011;29275;48.800;18.102;2022-07-15T18:39:22;1.88;;;0.70;;
43676;SDS011;29275;48.800;18.102;2022-07-15T18:42:27;2.20;;;1.00;;
43676;SDS011;29275;48.800;18.102;2022-07-15T18:45:30;3.00;;;0.82;;